2019-04-19 - 04:39:00

SR: 0424 - SS: 1833

RWY: 07


OBSERVATION: n/a

RVR Mean 1 min: (Runway Visual Range)
A: P2000 - B: P2000 - C: P2000
RVR Mean 10 min:
A: P2000 - B: P2000 - C: P2000
WARNING: n/a
W25: 360-110(050-04kt) 01kt-06kt
W07: 060-070(060-05kt) 04kt-06kt
OTHER: n/a

QFE: (tatsächlicher Luftdruck) 1023.5 hPa = 30.20 inHg
QNH:(Luftdruck auf Meereshöhe) 1029.4 hPa = 30.38 inHg
Temperatur: 9.7 °C
Dew point(Taupunkt): 1.7 °C

METAR:  00847 SADL31 EDDG 190420 METAR EDDG 190420Z 05004KT 020V090 CAVOK 09/02 Q1029 NOSIG= 
METAR (aus weather.noaa.gov):
2019/04/19 04:20 EDDG 190420Z 05004KT 020V090 CAVOK 09/02 Q1029 NOSIG 0

TAF (aus weather.noaa.gov):
2019/04/18 18:27 TAF EDDG 181700Z 1818/1918 07010KT CAVOK BECMG 1818/1821 07005KT BECMG 1907/1910 08013KT 0